메인 페이지
METAR-TAF:

METAR-TAF

공항 :

Brønnøysund, 노르웨이

위도: 65-28N, 경도: 012-13E, 고도: 0m

현재 날씨관측

예보는 33분 전, 02:50시(UTC)에 발표되었습니다.
북동10kt, 순간 최대 풍속 22kt북북서풍과 남동풍을 오가는
온도 20°C
습도 68%
기압 1012 hPa
시정 10km 이상

METAR: ENBN 210250Z AUTO 04010G22KT 340V140 9999NDV NCD 20/14 Q1012

시각: 05:23 (03:23 UTC)

예보

예보는 1 시간 23분 전, 02:00시(UTC)에 발표되었습니다.
예보 대상 시간: 21일 03시부터 21일 12시까지 (UTC)
동남동9kt
시정 10km 이상
1500m 미만 상공 구름 및 적란운 없음

TAF: ENBN 210200Z 2103/2112 12009KT CAVOK

4,000개 이상의 공항 관측 자료 및 예보 (METAR 및 TAF 보고).

지도상에서 검색 가능한 기상관측소가 노란 점과 빨간 점으로 표시되어 있습니다.

기상관측소 명을 보려면 표시 위로 마우스를 이동하세요.

날씨 관측과 예보를 보려면 클릭하세요.

지도 변경 : 확대하려면 엑스 표시가 있는 녹색 버튼, 축소하려면 빼기 표시가 있는 녹색 버튼, 다음 페이지의 지도를 보려면 녹색 화살표를 클릭하세요.


METAR-TAF: